createdAt,value
2019-04-03T00:01:56.159Z,97064.00
2019-04-03T00:04:25.548Z,97060.88
2019-04-03T00:06:54.938Z,97059.73
2019-04-03T00:09:24.421Z,97059.11
2019-04-03T00:11:53.815Z,97057.45
2019-04-03T00:14:23.198Z,97052.13
2019-04-03T00:16:52.596Z,97050.98
2019-04-03T00:19:21.990Z,97051.78
2019-04-03T00:21:51.369Z,97049.78
2019-04-03T00:24:22.662Z,97049.13
2019-04-03T00:26:52.693Z,97041.74
2019-04-03T00:29:22.908Z,97032.88
2019-04-03T00:31:53.675Z,97039.58
2019-04-03T00:34:23.965Z,97036.14
2019-04-03T00:36:53.702Z,97029.77
2019-04-03T00:39:24.349Z,97031.03
2019-04-03T00:41:54.791Z,97032.80
2019-04-03T00:44:24.841Z,97025.45
2019-04-03T00:46:55.762Z,97025.49
2019-04-03T00:49:26.044Z,97023.27
2019-04-03T00:51:57.514Z,97017.98
2019-04-03T00:54:27.383Z,97015.19
2019-04-03T00:56:57.829Z,97010.86
2019-04-03T00:59:27.233Z,97017.48
2019-04-03T01:01:57.173Z,97011.57
2019-04-03T01:04:28.437Z,97009.81
2019-04-03T01:06:58.642Z,97004.38
2019-04-03T01:09:29.838Z,97003.67
2019-04-03T01:12:00.847Z,97005.63
2019-04-03T01:14:31.585Z,97006.50
2019-04-03T01:17:03.466Z,97005.34
2019-04-03T01:19:32.594Z,96994.36
2019-04-03T01:22:02.056Z,97001.38
2019-04-03T01:24:31.454Z,96995.30
2019-04-03T01:27:01.307Z,96991.00
2019-04-03T01:29:30.756Z,96991.61
2019-04-03T01:32:00.367Z,96988.75
2019-04-03T01:34:29.774Z,96992.05
2019-04-03T01:36:59.170Z,96987.92
2019-04-03T01:39:28.564Z,96988.31
2019-04-03T01:41:57.959Z,96984.09
2019-04-03T01:44:27.502Z,96982.09
2019-04-03T01:46:58.290Z,96979.00
2019-04-03T01:49:28.410Z,96978.10
2019-04-03T01:52:00.302Z,96982.84
2019-04-03T01:54:29.326Z,96975.20
2019-04-03T01:56:58.721Z,96974.94
2019-04-03T01:59:28.103Z,96969.68
2019-04-03T02:01:57.815Z,96965.14
2019-04-03T02:04:28.013Z,96966.82
2019-04-03T02:06:58.363Z,96963.34
2019-04-03T02:09:28.558Z,96958.56
2019-04-03T02:11:58.808Z,96957.64
2019-04-03T02:14:29.315Z,96961.61
2019-04-03T02:16:59.526Z,96950.85
2019-04-03T02:19:29.701Z,96949.92
2019-04-03T02:22:00.118Z,96952.69
2019-04-03T02:24:31.764Z,96947.65
2019-04-03T02:27:03.146Z,96941.17
2019-04-03T02:29:32.593Z,96949.28
2019-04-03T02:32:01.996Z,96950.38
2019-04-03T02:34:34.834Z,96944.56
2019-04-03T02:37:02.511Z,96941.30
2019-04-03T02:39:32.142Z,96937.20
2019-04-03T02:42:02.192Z,96935.19
2019-04-03T02:44:32.265Z,96932.63
2019-04-03T02:47:02.478Z,96925.27
2019-04-03T02:49:32.955Z,96935.36
2019-04-03T02:52:03.435Z,96926.37
2019-04-03T02:54:36.335Z,96927.78
2019-04-03T02:57:07.056Z,96925.70
2019-04-03T02:59:38.031Z,96925.33
2019-04-03T03:02:11.458Z,96922.84
2019-04-03T03:04:38.673Z,96923.70
2019-04-03T03:07:08.129Z,96914.77
2019-04-03T03:09:37.885Z,96915.59
2019-04-03T03:12:07.835Z,96917.58
2019-04-03T03:14:39.365Z,96916.48
2019-04-03T03:17:10.043Z,96915.34
2019-04-03T03:19:39.761Z,96914.08
2019-04-03T03:22:09.605Z,96912.98
2019-04-03T03:24:39.177Z,96910.30
2019-04-03T03:27:09.915Z,96905.20
2019-04-03T03:29:39.733Z,96910.92
2019-04-03T03:32:17.422Z,96905.84
2019-04-03T03:34:54.087Z,96905.53
2019-04-03T03:37:12.813Z,96909.59
2019-04-03T03:39:44.485Z,96914.23
2019-04-03T03:42:14.627Z,96911.36
2019-04-03T03:44:46.035Z,96907.40
2019-04-03T03:47:17.174Z,96906.91
2019-04-03T03:49:49.703Z,96901.48
2019-04-03T03:52:18.620Z,96908.34
2019-04-03T03:54:51.131Z,96906.73
2019-04-03T03:57:19.374Z,96908.34
2019-04-03T03:59:52.675Z,96901.60
2019-04-03T04:02:22.568Z,96901.46
2019-04-03T04:04:51.906Z,96903.05
2019-04-03T04:07:21.531Z,96903.86
2019-04-03T04:09:51.928Z,96909.83
2019-04-03T04:12:22.190Z,96898.58
2019-04-03T04:14:54.824Z,96895.12
2019-04-03T04:17:23.274Z,96902.00
2019-04-03T04:19:54.214Z,96906.56
2019-04-03T04:22:26.703Z,96896.96
2019-04-03T04:24:57.147Z,96901.73
2019-04-03T04:27:26.923Z,96900.68
2019-04-03T04:29:56.567Z,96901.95
2019-04-03T04:32:25.963Z,96900.81
2019-04-03T04:34:55.364Z,96901.35
2019-04-03T04:37:26.445Z,96903.84
2019-04-03T04:39:55.867Z,96895.62
2019-04-03T04:42:25.248Z,96900.48
2019-04-03T04:44:54.652Z,96900.48
2019-04-03T04:47:24.038Z,96904.67
2019-04-03T04:49:54.307Z,96905.48
2019-04-03T04:52:23.733Z,96897.61
2019-04-03T04:54:53.118Z,96898.63
2019-04-03T04:57:22.648Z,96899.77
2019-04-03T04:59:52.036Z,96892.53
2019-04-03T05:02:21.584Z,96895.31
2019-04-03T05:04:50.985Z,96900.92
2019-04-03T05:07:20.793Z,96896.17
2019-04-03T05:09:51.244Z,96901.40
2019-04-03T05:12:20.762Z,96901.52
2019-04-03T05:14:50.131Z,96906.02
2019-04-03T05:17:20.782Z,96913.97
2019-04-03T05:19:50.320Z,96909.45
2019-04-03T05:22:19.719Z,96906.91
2019-04-03T05:24:49.182Z,96908.22
2019-04-03T05:27:18.581Z,96899.77
2019-04-03T05:29:48.364Z,96892.41
2019-04-03T05:32:18.954Z,96888.30
2019-04-03T05:34:48.809Z,96889.88
2019-04-03T05:37:20.177Z,96885.83
2019-04-03T05:39:50.314Z,96886.44
2019-04-03T05:42:19.719Z,96886.98
2019-04-03T05:44:49.764Z,96889.27
2019-04-03T05:47:20.067Z,96887.95
2019-04-03T05:49:51.275Z,96881.33
2019-04-03T05:52:21.568Z,96888.63
2019-04-03T05:54:51.047Z,96883.22
2019-04-03T05:57:21.046Z,96880.03
2019-04-03T05:59:59.824Z,96877.22
2019-04-03T06:02:22.579Z,96875.20
2019-04-03T06:04:52.117Z,96875.85
2019-04-03T06:07:22.180Z,96879.26
2019-04-03T06:09:53.853Z,96879.16
2019-04-03T06:12:23.406Z,96875.03
2019-04-03T06:14:53.868Z,96872.70
2019-04-03T06:17:23.522Z,96868.34
2019-04-03T06:19:53.334Z,96866.22
2019-04-03T06:22:23.729Z,96876.97
2019-04-03T06:24:55.779Z,96876.25
2019-04-03T06:27:27.568Z,96866.38
2019-04-03T06:29:56.081Z,96878.38
2019-04-03T06:32:28.588Z,96885.38
2019-04-03T06:34:56.619Z,96870.06
2019-04-03T06:37:26.004Z,96870.45
2019-04-03T06:39:55.664Z,96865.40
2019-04-03T06:42:25.651Z,96862.64
2019-04-03T06:44:55.861Z,96868.34
2019-04-03T06:47:26.194Z,96869.97
2019-04-03T06:49:56.467Z,96871.88
2019-04-03T06:52:26.665Z,96869.77
2019-04-03T06:54:56.799Z,96872.63
2019-04-03T06:57:27.548Z,96866.32
2019-04-03T06:59:57.394Z,96861.83
2019-04-03T07:02:29.633Z,96853.30
2019-04-03T07:04:59.688Z,96863.47
2019-04-03T07:07:34.372Z,96863.83
2019-04-03T07:10:02.320Z,96853.36
2019-04-03T07:12:31.934Z,96854.95
2019-04-03T07:15:01.434Z,96857.95
2019-04-03T07:17:32.119Z,96851.41
2019-04-03T07:20:12.615Z,96855.71
2019-04-03T07:22:33.259Z,96858.64
2019-04-03T07:25:03.842Z,96865.71
2019-04-03T07:27:34.901Z,96865.57
2019-04-03T07:30:07.221Z,96868.19
2019-04-03T07:32:36.937Z,96868.53
2019-04-03T07:35:10.117Z,96868.20
2019-04-03T07:37:37.280Z,96862.03
2019-04-03T07:40:07.761Z,96861.16
2019-04-03T07:42:38.380Z,96868.31
2019-04-03T07:45:08.214Z,96864.50
2019-04-03T07:47:37.745Z,96867.17
2019-04-03T07:50:10.925Z,96855.52
2019-04-03T07:52:40.493Z,96862.88
2019-04-03T07:55:10.156Z,96865.59
2019-04-03T07:57:41.406Z,96862.57
2019-04-03T08:00:11.274Z,96861.21
2019-04-03T08:02:45.348Z,96862.58
2019-04-03T08:05:12.234Z,96859.81
2019-04-03T08:07:41.721Z,96862.17
2019-04-03T08:10:11.538Z,96861.14
2019-04-03T08:12:40.933Z,96861.06
2019-04-03T08:15:12.518Z,96864.27
2019-04-03T08:17:41.757Z,96859.77
2019-04-03T08:20:11.479Z,96861.59
2019-04-03T08:22:40.935Z,96855.44
2019-04-03T08:25:11.799Z,96861.73
2019-04-03T08:27:41.839Z,96853.11
2019-04-03T08:30:13.419Z,96859.08
2019-04-03T08:32:42.738Z,96851.59
2019-04-03T08:35:21.141Z,96854.59
2019-04-03T08:37:43.978Z,96853.28
2019-04-03T08:40:13.610Z,96855.43
2019-04-03T08:42:43.149Z,96851.59
2019-04-03T08:45:13.672Z,96849.73
2019-04-03T08:47:45.920Z,96850.16
2019-04-03T08:50:14.742Z,96845.09
2019-04-03T08:52:44.217Z,96852.53
2019-04-03T08:55:14.702Z,96851.44
2019-04-03T08:57:46.394Z,96851.44
2019-04-03T09:00:15.547Z,96854.94
2019-04-03T09:02:45.003Z,96842.02
2019-04-03T09:05:17.043Z,96837.81
2019-04-03T09:07:46.423Z,96833.98
2019-04-03T09:10:16.989Z,96840.75
2019-04-03T09:12:46.578Z,96838.94
2019-04-03T09:15:16.036Z,96836.73
2019-04-03T09:17:45.452Z,96833.77
2019-04-03T09:20:15.342Z,96832.50
2019-04-03T09:22:44.808Z,96816.64
2019-04-03T09:25:14.547Z,96811.70
2019-04-03T09:27:43.948Z,96810.08
2019-04-03T09:30:16.170Z,96806.09
2019-04-03T09:32:46.045Z,96789.48
2019-04-03T09:35:16.155Z,96793.75
2019-04-03T09:37:46.358Z,96784.09
2019-04-03T09:40:17.287Z,96791.00
2019-04-03T09:42:47.223Z,96785.22
2019-04-03T09:45:16.976Z,96779.52
2019-04-03T09:47:46.404Z,96788.02
2019-04-03T09:50:16.174Z,96780.03
2019-04-03T09:52:49.280Z,96779.46
2019-04-03T09:55:16.704Z,96771.84
2019-04-03T09:57:46.107Z,96767.05
2019-04-03T10:00:16.239Z,96773.14
2019-04-03T10:02:45.703Z,96762.75
2019-04-03T10:05:16.169Z,96750.33
2019-04-03T10:07:46.045Z,96750.33
2019-04-03T10:10:17.321Z,96750.33
2019-04-03T10:12:47.938Z,96748.04
2019-04-03T10:15:18.932Z,96743.45
2019-04-03T10:17:48.810Z,96736.31
2019-04-03T10:20:19.623Z,96740.80
2019-04-03T10:22:48.953Z,96738.15
2019-04-03T10:25:18.405Z,96733.78
2019-04-03T10:27:48.035Z,96730.91
2019-04-03T10:30:21.530Z,96720.31
2019-04-03T10:32:50.357Z,96721.47
2019-04-03T10:35:20.845Z,96712.56
2019-04-03T10:37:50.242Z,96713.81
2019-04-03T10:40:19.976Z,96714.63
2019-04-03T10:42:49.831Z,96709.91
2019-04-03T10:45:20.413Z,96707.87
2019-04-03T10:47:50.156Z,96704.46
2019-04-03T10:50:20.168Z,96704.46
2019-04-03T10:52:50.421Z,96704.89
2019-04-03T10:55:20.687Z,96702.36
2019-04-03T10:57:50.766Z,96698.09
2019-04-03T11:00:22.061Z,96700.31
2019-04-03T11:02:52.137Z,96694.20
2019-04-03T11:05:21.600Z,96693.56
2019-04-03T11:07:51.781Z,96694.29
2019-04-03T11:10:24.118Z,96692.77
2019-04-03T11:12:53.078Z,96687.94
2019-04-03T11:15:22.607Z,96692.20
2019-04-03T11:17:52.758Z,96693.42
2019-04-03T11:20:23.206Z,96691.92
2019-04-03T11:23:04.105Z,96691.81
2019-04-03T11:25:24.236Z,96684.36
2019-04-03T11:27:53.989Z,96682.23
2019-04-03T11:30:24.946Z,96678.86
2019-04-03T11:32:54.795Z,96674.28
2019-04-03T11:35:24.257Z,96668.95
2019-04-03T11:37:54.620Z,96669.54
2019-04-03T11:40:25.661Z,96664.01
2019-04-03T11:42:55.519Z,96665.40
2019-04-03T11:45:25.223Z,96653.90
2019-04-03T11:47:55.830Z,96654.36
2019-04-03T11:50:25.955Z,96646.56
2019-04-03T11:52:56.381Z,96649.56
2019-04-03T11:55:26.667Z,96643.78
2019-04-03T11:57:57.419Z,96645.66
2019-04-03T12:00:31.363Z,96637.33
2019-04-03T12:03:00.997Z,96646.73
2019-04-03T12:05:30.482Z,96639.22
2019-04-03T12:07:59.834Z,96629.00
2019-04-03T12:10:29.227Z,96624.41
2019-04-03T12:12:58.801Z,96615.13
2019-04-03T12:15:28.198Z,96613.28
2019-04-03T12:18:00.738Z,96606.23
2019-04-03T12:20:29.490Z,96603.10
2019-04-03T12:22:59.474Z,96608.65
2019-04-03T12:25:29.059Z,96602.55
2019-04-03T12:27:59.412Z,96597.42
2019-04-03T12:30:29.642Z,96591.16
2019-04-03T12:33:00.028Z,96588.41
2019-04-03T12:35:30.132Z,96583.30
2019-04-03T12:38:00.511Z,96591.98
2019-04-03T12:40:32.753Z,96585.30
2019-04-03T12:43:02.142Z,96588.03
2019-04-03T12:45:31.629Z,96582.14
2019-04-03T12:48:01.547Z,96580.08
2019-04-03T12:50:31.603Z,96582.48
2019-04-03T12:53:01.903Z,96579.84
2019-04-03T12:55:32.402Z,96579.59
2019-04-03T12:58:04.692Z,96579.86
2019-04-03T13:00:33.713Z,96546.09
2019-04-03T13:03:03.451Z,96570.52
2019-04-03T13:05:36.354Z,96573.58
2019-04-03T13:08:04.317Z,96574.16
2019-04-03T13:10:41.002Z,96565.34
2019-04-03T13:13:04.932Z,96563.42
2019-04-03T13:15:36.248Z,96554.80
2019-04-03T13:18:05.520Z,96551.33
2019-04-03T13:20:36.676Z,96547.19
2019-04-03T13:23:06.259Z,96549.17
2019-04-03T13:25:35.603Z,96542.73
2019-04-03T13:28:05.424Z,96540.98
2019-04-03T13:30:35.687Z,96540.98
2019-04-03T13:33:07.702Z,96539.16
2019-04-03T13:35:37.015Z,96542.51
2019-04-03T13:38:06.472Z,96544.22
2019-04-03T13:40:38.863Z,96540.45
2019-04-03T13:43:08.217Z,96552.75
2019-04-03T13:45:37.798Z,96546.91
2019-04-03T13:48:07.719Z,96542.39
2019-04-03T13:50:37.457Z,96544.10
2019-04-03T13:53:07.720Z,96535.92
2019-04-03T13:55:40.234Z,96549.50
2019-04-03T13:58:09.131Z,96544.69
2019-04-03T14:00:38.462Z,96544.25
2019-04-03T14:03:09.050Z,96554.28
2019-04-03T14:05:39.125Z,96540.61
2019-04-03T14:08:12.125Z,96547.70
2019-04-03T14:10:40.748Z,96553.68
2019-04-03T14:13:12.196Z,96555.87
2019-04-03T14:15:42.172Z,96550.56
2019-04-03T14:18:12.038Z,96555.70
2019-04-03T14:20:41.563Z,96547.17
2019-04-03T14:23:11.154Z,96551.02
2019-04-03T14:25:40.903Z,96561.44
2019-04-03T14:28:11.028Z,96563.28
2019-04-03T14:30:43.639Z,96571.59
2019-04-03T14:33:12.410Z,96574.81
2019-04-03T14:35:50.398Z,96563.61
2019-04-03T14:38:13.007Z,96593.07
2019-04-03T14:40:43.948Z,96608.34
2019-04-03T14:43:18.099Z,96624.22
2019-04-03T14:45:47.659Z,96631.30
2019-04-03T14:48:17.274Z,96638.04
2019-04-03T14:50:46.705Z,96645.75
2019-04-03T14:53:16.098Z,96646.06
2019-04-03T14:55:49.587Z,96675.58
2019-04-03T14:58:16.707Z,96657.14
2019-04-03T15:00:48.535Z,96658.17
2019-04-03T15:03:17.174Z,96648.39
2019-04-03T15:05:47.007Z,96631.39
2019-04-03T15:08:16.394Z,96619.35
2019-04-03T15:10:46.188Z,96621.67
2019-04-03T15:13:15.531Z,96624.72
2019-04-03T15:15:46.004Z,96629.72
2019-04-03T15:18:15.896Z,96623.28
2019-04-03T15:20:47.159Z,96606.82
2019-04-03T15:23:17.525Z,96601.61
2019-04-03T15:25:47.948Z,96608.58
2019-04-03T15:28:17.959Z,96605.95
2019-04-03T15:30:47.938Z,96605.95
2019-04-03T15:33:17.685Z,96609.13
2019-04-03T15:35:47.541Z,96601.23
2019-04-03T15:38:18.837Z,96601.45
2019-04-03T15:40:48.881Z,96614.72
2019-04-03T15:43:18.365Z,96611.78
2019-04-03T15:45:49.093Z,96613.16
2019-04-03T15:48:22.046Z,96611.28
2019-04-03T15:50:50.023Z,96609.44
2019-04-03T15:53:22.344Z,96609.04
2019-04-03T15:55:51.417Z,96606.36
2019-04-03T15:58:20.800Z,96600.98
2019-04-03T16:00:50.451Z,96604.59
2019-04-03T16:03:20.781Z,96600.19
2019-04-03T16:05:51.245Z,96605.55
2019-04-03T16:08:21.038Z,96604.33
2019-04-03T16:10:51.091Z,96605.28
2019-04-03T16:13:22.152Z,96606.19
2019-04-03T16:15:55.203Z,96601.84
2019-04-03T16:18:22.726Z,96612.91
2019-04-03T16:20:52.358Z,96612.23
2019-04-03T16:23:22.553Z,96610.63
2019-04-03T16:25:52.579Z,96606.28
2019-04-03T16:28:23.291Z,96617.56
2019-04-03T16:30:54.365Z,96617.56
2019-04-03T16:33:24.860Z,96612.55
2019-04-03T16:35:54.525Z,96613.78
2019-04-03T16:38:24.055Z,96610.46
2019-04-03T16:40:54.411Z,96601.48
2019-04-03T16:43:24.503Z,96603.39
2019-04-03T16:45:54.820Z,96606.31
2019-04-03T16:48:24.941Z,96601.92
2019-04-03T16:50:55.595Z,96598.05
2019-04-03T16:53:26.034Z,96598.48
2019-04-03T16:55:56.409Z,96594.17
2019-04-03T16:58:27.050Z,96591.56
2019-04-03T17:00:57.167Z,96590.05
2019-04-03T17:03:27.737Z,96588.73
2019-04-03T17:05:57.642Z,96584.59
2019-04-03T17:08:27.607Z,96586.14
2019-04-03T17:10:57.068Z,96583.32
2019-04-03T17:13:27.269Z,96580.53
2019-04-03T17:15:57.473Z,96584.45
2019-04-03T17:18:27.723Z,96577.06
2019-04-03T17:20:58.349Z,96581.98
2019-04-03T17:26:09.700Z,96585.19
2019-04-03T17:28:40.615Z,96586.27
2019-04-03T17:31:10.456Z,96589.04
2019-04-03T17:33:40.819Z,96591.02
2019-04-03T17:36:10.672Z,96586.21
2019-04-03T17:38:40.298Z,96583.84
2019-04-03T17:41:09.997Z,96576.63
2019-04-03T17:43:39.380Z,96589.96
2019-04-03T17:46:08.758Z,96586.30
2019-04-03T17:48:38.144Z,96587.39
2019-04-03T17:51:07.526Z,96593.14
2019-04-03T17:53:37.207Z,96584.91
2019-04-03T17:56:06.596Z,96590.53
2019-04-03T17:58:35.979Z,96588.96
2019-04-03T18:01:05.432Z,96581.94
2019-04-03T18:03:34.834Z,96587.89
2019-04-03T18:06:04.402Z,96586.63
2019-04-03T18:08:33.778Z,96588.56
2019-04-03T18:11:03.298Z,96588.38
2019-04-03T18:13:33.008Z,96597.62
2019-04-03T18:16:03.510Z,96594.63
2019-04-03T18:18:34.094Z,96597.09
2019-04-03T18:21:03.739Z,96602.32
2019-04-03T18:23:34.006Z,96607.86
2019-04-03T18:26:04.942Z,96612.66
2019-04-03T18:28:35.735Z,96613.03
2019-04-03T18:31:05.720Z,96612.11
2019-04-03T18:33:35.114Z,96616.02
2019-04-03T18:36:05.567Z,96610.97
2019-04-03T18:38:36.730Z,96616.50
2019-04-03T18:41:06.511Z,96610.16
2019-04-03T18:43:35.950Z,96618.97
2019-04-03T18:46:06.186Z,96613.64
2019-04-03T18:48:36.469Z,96613.18
2019-04-03T18:51:06.977Z,96602.39
2019-04-03T18:53:36.944Z,96608.61
2019-04-03T18:56:07.177Z,96611.05
2019-04-03T18:58:37.503Z,96618.97
2019-04-03T19:01:07.637Z,96615.25
2019-04-03T19:03:37.816Z,96618.39
2019-04-03T19:06:08.116Z,96614.64
2019-04-03T19:08:38.327Z,96608.73
2019-04-03T19:11:09.685Z,96617.50
2019-04-03T19:13:39.597Z,96619.56
2019-04-03T19:16:09.181Z,96628.73
2019-04-03T19:18:39.595Z,96629.52
2019-04-03T19:21:23.693Z,96631.80
2019-04-03T19:23:49.734Z,96627.96
2019-04-03T19:26:11.717Z,96623.82
2019-04-03T19:28:41.177Z,96623.16
2019-04-03T19:31:10.582Z,96623.13
2019-04-03T19:33:40.741Z,96634.19
2019-04-03T19:36:10.805Z,96629.17
2019-04-03T19:38:41.257Z,96623.50
2019-04-03T19:41:11.919Z,96622.94
2019-04-03T19:43:41.803Z,96629.56
2019-04-03T19:46:11.746Z,96630.47
2019-04-03T19:48:42.057Z,96638.18
2019-04-03T19:51:12.231Z,96634.98
2019-04-03T19:53:44.353Z,96631.66
2019-04-03T19:56:13.744Z,96628.30
2019-04-03T19:58:43.207Z,96624.16
2019-04-03T20:01:13.273Z,96622.03
2019-04-03T20:03:44.299Z,96630.32
2019-04-03T20:06:14.232Z,96625.70
2019-04-03T20:08:44.048Z,96620.31
2019-04-03T20:11:14.232Z,96617.16
2019-04-03T20:13:44.748Z,96625.41
2019-04-03T20:16:14.701Z,96625.83
2019-04-03T20:18:45.051Z,96626.35
2019-04-03T20:21:15.402Z,96619.90
2019-04-03T20:23:48.334Z,96629.52
2019-04-03T20:26:16.986Z,96626.35
2019-04-03T20:28:46.326Z,96624.05
2019-04-03T20:31:16.256Z,96625.66
2019-04-03T20:33:46.587Z,96638.63
2019-04-03T20:36:16.818Z,96630.54
2019-04-03T20:38:47.028Z,96625.86
2019-04-03T20:41:17.229Z,96614.39
2019-04-03T20:43:47.582Z,96626.07
2019-04-03T20:48:40.870Z,96624.48
2019-04-03T20:51:10.319Z,96620.26
2019-04-03T20:53:39.718Z,96632.55
2019-04-03T20:56:09.103Z,96631.58
2019-04-03T20:58:40.716Z,96625.98
2019-04-03T21:01:09.659Z,96630.64
2019-04-03T21:03:39.058Z,96633.45
2019-04-03T21:06:08.449Z,96633.74
2019-04-03T21:08:37.849Z,96640.64
2019-04-03T21:11:07.234Z,96640.23
2019-04-03T21:13:39.460Z,96640.33
2019-04-03T21:16:07.707Z,96643.93
2019-04-03T21:18:37.083Z,96643.93
2019-04-03T21:21:06.951Z,96647.64
2019-04-03T21:23:36.344Z,96636.73
2019-04-03T21:26:07.348Z,96645.74
2019-04-03T21:28:36.815Z,96647.42
2019-04-03T21:31:06.208Z,96644.51
2019-04-03T21:33:35.638Z,96645.59
2019-04-03T21:36:06.924Z,96644.17
2019-04-03T21:38:37.209Z,96644.84
2019-04-03T21:41:06.833Z,96641.67
2019-04-03T21:43:36.538Z,96642.45
2019-04-03T21:46:07.011Z,96649.23
2019-04-03T21:48:37.124Z,96647.70
2019-04-03T21:51:07.075Z,96648.80
2019-04-03T21:53:37.049Z,96648.73
2019-04-03T21:56:08.959Z,96645.34
2019-04-03T21:58:39.664Z,96646.21
2019-04-03T22:01:19.910Z,96638.17
2019-04-03T22:03:51.376Z,96638.17
2019-04-03T22:06:21.419Z,96631.64
2019-04-03T22:08:51.629Z,96632.63
2019-04-03T22:11:21.184Z,96626.77
2019-04-03T22:13:50.638Z,96625.09
2019-04-03T22:16:20.582Z,96623.02
2019-04-03T22:18:49.954Z,96620.55
2019-04-03T22:21:19.342Z,96613.66
2019-04-03T22:23:48.796Z,96613.66
2019-04-03T22:26:18.168Z,96609.30
2019-04-03T22:28:47.569Z,96613.27
2019-04-03T22:31:16.961Z,96608.84
2019-04-03T22:33:47.319Z,96608.84
2019-04-03T22:36:16.712Z,96617.93
2019-04-03T22:38:46.097Z,96617.64
2019-04-03T22:41:15.490Z,96616.69
2019-04-03T22:43:46.234Z,96613.01
2019-04-03T22:46:16.229Z,96615.69
2019-04-03T22:48:45.617Z,96619.38
2019-04-03T22:51:15.078Z,96620.49
2019-04-03T22:53:44.463Z,96619.86
2019-04-03T22:56:16.581Z,96612.59
2019-04-03T22:58:44.944Z,96617.68
2019-04-03T23:01:14.327Z,96609.63
2019-04-03T23:03:43.707Z,96614.16
2019-04-03T23:06:13.099Z,96610.42
2019-04-03T23:08:42.564Z,96609.48
2019-04-03T23:11:11.958Z,96611.08
2019-04-03T23:13:41.339Z,96609.06
2019-04-03T23:16:11.538Z,96617.74
2019-04-03T23:18:41.560Z,96606.97
2019-04-03T23:21:10.952Z,96607.50
2019-04-03T23:23:40.356Z,96607.06
2019-04-03T23:26:09.739Z,96603.84
2019-04-03T23:28:39.120Z,96591.13
2019-04-03T23:31:08.507Z,96603.98
2019-04-03T23:33:37.890Z,96600.63
2019-04-03T23:36:07.356Z,96597.64
2019-04-03T23:38:36.740Z,96600.70
2019-04-03T23:41:06.779Z,96580.66
2019-04-03T23:43:36.218Z,96580.66
2019-04-03T23:46:07.275Z,96589.59
2019-04-03T23:48:36.667Z,96589.50
2019-04-03T23:51:06.405Z,96592.18
2019-04-03T23:53:36.628Z,96589.80
2019-04-03T23:56:07.369Z,96587.70
2019-04-03T23:58:37.210Z,96588.16
